Time;durP1;ratioP1;P1;durP2;ratioP2;P2;SDS_P1;SDS_P2;PMS_P1;PMS_P2;Temp;Humidity;BMP_temperature;BMP_pressure;BME280_temperature;BME280_humidity;BME280_pressure;Samples;Min_cycle;Max_cycle;Signal;HPM_P1;HPM_P2
2024/01/22 00:02:23;;;;;;;5.30;3.40;;;2.90;99.90;;;;;;5026989;28;20208;-74
2024/01/22 00:04:50;;;;;;;4.47;3.33;;;2.90;99.90;;;;;;5026913;28;20207;-74
2024/01/22 00:07:18;;;;;;;3.97;3.63;;;2.90;99.90;;;;;;5008496;28;20305;-74
2024/01/22 00:09:45;;;;;;;4.77;3.23;;;2.90;99.90;;;;;;5007030;28;20328;-75
2024/01/22 00:12:12;;;;;;;3.70;3.40;;;2.80;99.90;;;;;;5007345;28;20229;-75
2024/01/22 00:14:39;;;;;;;4.70;3.30;;;2.80;99.90;;;;;;5006648;28;20706;-75
2024/01/22 00:17:06;;;;;;;4.30;3.37;;;2.80;99.90;;;;;;5007143;28;20601;-75
2024/01/22 00:19:33;;;;;;;4.07;3.50;;;2.80;99.90;;;;;;5007249;28;20236;-75
2024/01/22 00:22:00;;;;;;;3.60;3.30;;;2.80;99.90;;;;;;5006911;28;20275;-75
2024/01/22 00:24:28;;;;;;;3.30;3.10;;;2.80;99.90;;;;;;5007100;28;20760;-75
2024/01/22 00:26:55;;;;;;;3.70;3.40;;;2.80;99.90;;;;;;5008792;28;20274;-75
2024/01/22 00:29:22;;;;;;;3.90;3.60;;;2.80;99.90;;;;;;5026492;28;21028;-75
2024/01/22 00:31:49;;;;;;;3.60;3.30;;;2.80;99.90;;;;;;5024513;28;20209;-75
2024/01/22 00:34:16;;;;;;;3.70;3.30;;;2.80;99.90;;;;;;5026922;28;20847;-77
2024/01/22 00:36:42;;;;;;;3.37;3.07;;;2.80;99.90;;;;;;5022130;28;20219;-77
2024/01/22 00:39:09;;;;;;;3.33;3.13;;;2.80;99.90;;;;;;5011498;28;20332;-77
2024/01/22 00:41:37;;;;;;;4.27;3.13;;;2.80;99.90;;;;;;5025152;28;20297;-77
2024/01/22 00:44:05;;;;;;;3.60;3.30;;;2.80;99.90;;;;;;5031028;28;20290;-77
2024/01/22 00:46:31;;;;;;;3.67;3.03;;;2.80;99.90;;;;;;5030615;28;20264;-74
2024/01/22 00:48:58;;;;;;;3.50;3.20;;;2.80;99.90;;;;;;5030634;28;20209;-74
2024/01/22 00:51:25;;;;;;;3.50;3.20;;;2.70;99.90;;;;;;5029437;28;20209;-75
2024/01/22 00:53:52;;;;;;;3.40;3.10;;;2.70;99.90;;;;;;4991049;28;20308;-75
2024/01/22 00:56:19;;;;;;;3.40;3.10;;;2.70;99.90;;;;;;4991446;28;20307;-75
2024/01/22 00:58:47;;;;;;;3.80;3.43;;;2.70;99.90;;;;;;4991072;28;20342;-74
2024/01/22 01:01:14;;;;;;;3.37;2.90;;;2.70;99.90;;;;;;4991143;28;20240;-75
2024/01/22 01:03:41;;;;;;;3.27;2.97;;;2.70;99.90;;;;;;4976387;28;20246;-74
2024/01/22 01:06:08;;;;;;;3.83;3.00;;;2.70;99.90;;;;;;4971210;28;20631;-74
2024/01/22 01:08:34;;;;;;;3.23;2.80;;;2.70;99.90;;;;;;4971146;28;20294;-74
2024/01/22 01:11:01;;;;;;;3.47;3.17;;;2.70;99.90;;;;;;4971280;28;20309;-75
2024/01/22 01:13:28;;;;;;;3.77;3.23;;;2.70;99.90;;;;;;4971688;28;20241;-76
2024/01/22 01:15:56;;;;;;;3.63;3.33;;;2.70;99.90;;;;;;4984918;28;20293;-75
2024/01/22 01:18:23;;;;;;;5.40;3.30;;;2.80;99.90;;;;;;4990542;28;20261;-75
2024/01/22 01:20:50;;;;;;;3.80;3.10;;;2.80;99.90;;;;;;4991050;28;20212;-75
2024/01/22 01:23:17;;;;;;;3.67;3.13;;;2.80;99.90;;;;;;4974875;28;20211;-75
2024/01/22 01:25:44;;;;;;;3.30;3.00;;;2.80;99.90;;;;;;4971100;28;20219;-75
2024/01/22 01:28:11;;;;;;;3.23;2.83;;;2.80;99.90;;;;;;4971578;28;20954;-75
2024/01/22 01:30:38;;;;;;;3.30;3.00;;;2.80;99.90;;;;;;4971185;28;20218;-75
2024/01/22 01:33:06;;;;;;;3.50;3.20;;;2.80;99.90;;;;;;4971086;28;20306;-75
2024/01/22 01:35:33;;;;;;;3.33;3.00;;;2.80;99.90;;;;;;4971086;28;20213;-75
2024/01/22 01:38:00;;;;;;;3.13;2.80;;;2.80;99.90;;;;;;4970849;28;20326;-76
2024/01/22 01:40:27;;;;;;;2.97;2.70;;;2.90;99.90;;;;;;4970896;28;20210;-75
2024/01/22 01:42:55;;;;;;;3.60;2.90;;;2.80;99.90;;;;;;4990337;28;20943;-75
2024/01/22 01:45:22;;;;;;;3.10;2.80;;;2.80;99.90;;;;;;4990100;28;20305;-74
2024/01/22 01:47:49;;;;;;;3.33;3.03;;;2.90;99.90;;;;;;4989752;28;20637;-75
2024/01/22 01:50:18;;;;;;;3.23;2.90;;;2.80;99.90;;;;;;4990407;28;20214;-74
2024/01/22 01:52:45;;;;;;;2.83;2.57;;;2.80;99.90;;;;;;5010182;28;20731;-73
2024/01/22 01:55:13;;;;;;;3.00;2.70;;;2.90;99.90;;;;;;5029020;28;20707;-74
2024/01/22 01:57:40;;;;;;;3.63;2.70;;;2.90;99.90;;;;;;5028968;28;20232;-74
2024/01/22 02:00:09;;;;;;;3.90;2.63;;;2.90;99.90;;;;;;5029281;28;20203;-74
2024/01/22 02:02:38;;;;;;;3.83;2.83;;;2.90;99.90;;;;;;5028929;28;20588;-74
2024/01/22 02:05:06;;;;;;;3.97;2.60;;;2.90;99.90;;;;;;5009736;28;20198;-74
2024/01/22 02:07:35;;;;;;;2.80;2.60;;;3.00;99.90;;;;;;5008687;28;20213;-74
2024/01/22 02:10:02;;;;;;;3.37;2.90;;;3.00;99.90;;;;;;5009561;28;20216;-75
2024/01/22 02:12:29;;;;;;;3.23;2.70;;;3.00;99.90;;;;;;5009410;28;20212;-75
2024/01/22 02:14:56;;;;;;;3.63;2.73;;;3.00;99.90;;;;;;5009337;28;20301;-74
2024/01/22 02:17:23;;;;;;;3.20;2.90;;;3.00;99.90;;;;;;5028449;28;20304;-74
2024/01/22 02:19:50;;;;;;;2.70;2.50;;;3.00;99.90;;;;;;5010847;28;20292;-75
2024/01/22 02:22:17;;;;;;;3.17;2.93;;;3.00;99.90;;;;;;5008808;28;20681;-74
2024/01/22 02:24:45;;;;;;;2.80;2.43;;;3.00;99.90;;;;;;5010408;28;20220;-74
2024/01/22 02:27:12;;;;;;;4.10;2.77;;;3.00;99.90;;;;;;5028723;28;20236;-74
2024/01/22 02:29:39;;;;;;;2.80;2.60;;;3.00;99.90;;;;;;5028533;28;20215;-75
2024/01/22 02:32:06;;;;;;;2.93;2.63;;;3.10;99.90;;;;;;5025603;28;20315;-75
2024/01/22 02:34:33;;;;;;;3.63;2.60;;;3.10;99.90;;;;;;5009097;28;20305;-74
2024/01/22 02:36:59;;;;;;;3.37;2.70;;;3.10;99.90;;;;;;5012273;28;20284;-74
2024/01/22 02:39:26;;;;;;;2.83;2.63;;;3.10;99.90;;;;;;5028648;28;20327;-74
2024/01/22 02:41:55;;;;;;;2.77;2.57;;;3.10;99.90;;;;;;5028815;28;20263;-74
2024/01/22 02:44:22;;;;;;;2.73;2.53;;;3.10;99.90;;;;;;5028265;28;20659;-74
2024/01/22 02:46:48;;;;;;;4.03;2.90;;;3.10;99.90;;;;;;5028516;28;20320;-74
2024/01/22 02:49:16;;;;;;;3.27;2.80;;;3.20;99.90;;;;;;5025032;28;20289;-75
2024/01/22 02:51:43;;;;;;;2.73;2.53;;;3.20;99.90;;;;;;5007984;28;20296;-74
2024/01/22 02:54:12;;;;;;;2.80;2.50;;;3.20;99.90;;;;;;5008833;28;20289;-74
2024/01/22 02:56:39;;;;;;;3.87;2.37;;;3.20;99.90;;;;;;5008241;28;20324;-75
2024/01/22 02:59:07;;;;;;;2.60;2.40;;;3.10;99.90;;;;;;5008302;28;20319;-74
2024/01/22 03:01:34;;;;;;;3.57;2.77;;;3.20;99.90;;;;;;5009079;28;20264;-73
2024/01/22 03:04:01;;;;;;;3.10;2.67;;;3.20;99.90;;;;;;5007105;28;20206;-73
2024/01/22 03:06:28;;;;;;;2.80;2.60;;;3.20;99.90;;;;;;5007696;28;20237;-73
2024/01/22 03:08:54;;;;;;;2.60;2.30;;;3.20;99.90;;;;;;5008559;28;20209;-74
2024/01/22 03:11:22;;;;;;;2.67;2.40;;;3.20;99.90;;;;;;5008954;28;20206;-73
2024/01/22 03:13:49;;;;;;;2.50;2.30;;;3.20;99.90;;;;;;5008081;28;20202;-74
2024/01/22 03:16:17;;;;;;;2.63;2.43;;;3.30;99.90;;;;;;5006832;28;20201;-75
2024/01/22 03:18:44;;;;;;;2.60;2.40;;;3.30;99.90;;;;;;5009691;28;20335;-74
2024/01/22 03:21:11;;;;;;;2.63;2.43;;;3.30;99.90;;;;;;5015412;28;20214;-73
2024/01/22 03:23:38;;;;;;;4.30;2.50;;;3.30;99.90;;;;;;5014369;28;20237;-73
2024/01/22 03:26:07;;;;;;;2.50;2.30;;;3.30;99.90;;;;;;5014779;28;20248;-73
2024/01/22 03:28:34;;;;;;;2.53;2.33;;;3.30;99.90;;;;;;5017867;28;20210;-75
2024/01/22 03:31:01;;;;;;;2.67;2.47;;;3.30;99.90;;;;;;5007067;28;20209;-75
2024/01/22 03:33:29;;;;;;;2.80;2.60;;;3.30;99.90;;;;;;5008874;28;20288;-75
2024/01/22 03:35:56;;;;;;;2.60;2.40;;;3.40;99.90;;;;;;5023362;28;20208;-75
2024/01/22 03:38:22;;;;;;;3.23;2.60;;;3.40;99.90;;;;;;5013821;28;20268;-75
2024/01/22 03:40:49;;;;;;;2.80;2.60;;;3.40;99.90;;;;;;5022397;28;20290;-75
2024/01/22 03:43:16;;;;;;;2.80;2.20;;;3.50;99.90;;;;;;5025665;28;20215;-75
2024/01/22 03:45:43;;;;;;;2.70;2.50;;;3.50;99.90;;;;;;5020443;28;20320;-73
2024/01/22 03:48:10;;;;;;;4.30;2.67;;;3.50;99.90;;;;;;5005853;28;20212;-73
2024/01/22 03:50:38;;;;;;;2.47;2.27;;;3.50;99.90;;;;;;5005963;28;20247;-73
2024/01/22 03:53:05;;;;;;;2.70;2.40;;;3.50;99.90;;;;;;5012242;28;20312;-73
2024/01/22 03:55:32;;;;;;;2.63;2.43;;;3.50;99.90;;;;;;5005706;28;20209;-73
2024/01/22 03:57:59;;;;;;;3.17;2.87;;;3.60;99.90;;;;;;5005768;28;20217;-73
2024/01/22 04:00:26;;;;;;;3.63;2.60;;;3.60;99.90;;;;;;5006555;28;21047;-74
2024/01/22 04:02:53;;;;;;;2.60;2.40;;;3.50;99.90;;;;;;5018129;28;20879;-73
2024/01/22 04:05:20;;;;;;;3.53;2.23;;;3.60;99.90;;;;;;5027175;28;20217;-73
2024/01/22 04:07:48;;;;;;;2.87;2.57;;;3.60;99.90;;;;;;5011167;28;20209;-73
2024/01/22 04:10:15;;;;;;;3.33;2.57;;;3.60;99.90;;;;;;5007443;28;20737;-73
2024/01/22 04:12:42;;;;;;;2.30;2.20;;;3.60;99.90;;;;;;5007192;28;20255;-73
2024/01/22 04:15:09;;;;;;;2.43;2.17;;;3.60;99.90;;;;;;5007190;28;20296;-73
2024/01/22 04:17:36;;;;;;;4.27;2.80;;;3.60;99.90;;;;;;5007265;28;20290;-73
2024/01/22 04:20:04;;;;;;;3.50;2.43;;;3.70;99.90;;;;;;5007515;28;20324;-73
2024/01/22 04:22:31;;;;;;;2.17;2.07;;;3.70;99.90;;;;;;5006756;28;20653;-73
2024/01/22 04:24:59;;;;;;;2.60;2.40;;;3.70;99.90;;;;;;5007677;28;20576;-73
2024/01/22 04:27:26;;;;;;;2.27;2.17;;;3.70;99.90;;;;;;5007434;28;20306;-73
2024/01/22 04:29:53;;;;;;;2.87;2.20;;;3.80;99.90;;;;;;5007314;28;20268;-73
2024/01/22 04:32:20;;;;;;;2.73;2.53;;;3.80;99.90;;;;;;5007596;28;20319;-73
2024/01/22 04:34:47;;;;;;;2.77;2.57;;;4.10;99.90;;;;;;5007452;28;20208;-73
2024/01/22 04:37:14;;;;;;;3.03;2.03;;;4.40;99.90;;;;;;5007491;28;20224;-73
2024/01/22 04:39:41;;;;;;;2.53;2.00;;;4.40;99.90;;;;;;5006939;28;20233;-73
2024/01/22 04:42:10;;;;;;;2.80;2.50;;;4.40;99.90;;;;;;5007215;28;20301;-73
2024/01/22 04:44:38;;;;;;;2.13;2.00;;;4.40;99.90;;;;;;5007526;28;20212;-73
2024/01/22 04:47:05;;;;;;;3.70;2.00;;;4.40;99.90;;;;;;5007605;28;20630;-73
2024/01/22 04:49:31;;;;;;;3.20;2.10;;;4.30;99.90;;;;;;5007283;28;20583;-73
2024/01/22 04:51:58;;;;;;;2.50;2.17;;;4.30;99.90;;;;;;5006701;28;20241;-73
2024/01/22 04:54:25;;;;;;;3.77;2.20;;;4.20;99.90;;;;;;5006605;28;20214;-73
2024/01/22 04:56:54;;;;;;;1.90;1.80;;;4.10;99.90;;;;;;5006795;28;20264;-73
2024/01/22 04:59:22;;;;;;;2.23;2.03;;;4.20;99.90;;;;;;5006752;28;20719;-73
2024/01/22 05:01:49;;;;;;;3.53;2.00;;;4.20;99.90;;;;;;5007152;28;20288;-73
2024/01/22 05:04:16;;;;;;;1.93;1.83;;;4.30;99.90;;;;;;5007015;28;20758;-72
2024/01/22 05:06:42;;;;;;;3.73;2.20;;;4.40;99.90;;;;;;5006298;28;20248;-73
2024/01/22 05:09:10;;;;;;;3.23;2.23;;;4.40;99.90;;;;;;5006966;28;20317;-73
2024/01/22 05:11:37;;;;;;;1.90;1.80;;;4.50;99.90;;;;;;5006836;28;20213;-73
2024/01/22 05:14:04;;;;;;;1.87;1.77;;;4.50;99.90;;;;;;5006839;28;20296;-73
2024/01/22 05:16:33;;;;;;;2.83;2.10;;;4.50;99.90;;;;;;5006819;28;20273;-73
2024/01/22 05:19:00;;;;;;;2.10;2.00;;;4.50;99.90;;;;;;5006841;28;20241;-73
2024/01/22 05:21:27;;;;;;;3.67;2.07;;;4.40;99.90;;;;;;5006325;28;20240;-73
2024/01/22 05:23:54;;;;;;;2.23;1.70;;;4.40;99.90;;;;;;5008022;28;20305;-73
2024/01/22 05:26:20;;;;;;;2.37;1.47;;;4.40;99.90;;;;;;5010017;28;20245;-73
2024/01/22 05:28:47;;;;;;;2.10;1.97;;;4.30;99.90;;;;;;5009848;28;20248;-73
2024/01/22 05:31:14;;;;;;;3.57;1.77;;;4.30;99.90;;;;;;5010230;28;20256;-72
2024/01/22 05:33:43;;;;;;;1.80;1.70;;;4.30;99.90;;;;;;5010011;28;20309;-73
2024/01/22 05:36:10;;;;;;;3.43;1.80;;;4.30;99.90;;;;;;5009973;28;20312;-72
2024/01/22 05:38:41;;;;;;;1.70;1.33;;;4.50;99.90;;;;;;5009207;28;20315;-73
2024/01/22 05:41:07;;;;;;;1.80;1.27;;;4.70;99.90;;;;;;5009729;28;20198;-73
2024/01/22 05:43:34;;;;;;;1.47;1.37;;;4.60;99.90;;;;;;5009920;28;20324;-73
2024/01/22 05:46:01;;;;;;;1.93;1.40;;;4.60;99.90;;;;;;5009869;28;20324;-73
2024/01/22 05:48:28;;;;;;;3.27;1.43;;;4.70;99.90;;;;;;5009290;28;20256;-73
2024/01/22 05:50:56;;;;;;;1.50;1.40;;;4.90;99.90;;;;;;5009912;28;20304;-73
2024/01/22 05:53:23;;;;;;;2.50;1.60;;;5.20;99.90;;;;;;4990508;28;20449;-72
2024/01/22 05:55:50;;;;;;;1.80;1.23;;;5.30;99.90;;;;;;4989991;28;20291;-72
2024/01/22 05:58:17;;;;;;;2.83;1.40;;;5.30;99.90;;;;;;4990586;28;20732;-72
2024/01/22 06:00:44;;;;;;;1.87;1.37;;;5.60;99.90;;;;;;5006640;28;21037;-73
2024/01/22 06:03:11;;;;;;;1.27;1.10;;;5.50;99.90;;;;;;5009344;28;20205;-73
2024/01/22 06:05:38;;;;;;;1.77;1.33;;;5.60;99.90;;;;;;5009162;28;20213;-73
2024/01/22 06:08:07;;;;;;;1.87;1.10;;;6.00;99.90;;;;;;4992102;28;20230;-73
2024/01/22 06:10:34;;;;;;;1.30;1.20;;;6.20;99.90;;;;;;4989454;28;20305;-72
2024/01/22 06:13:02;;;;;;;1.67;1.40;;;6.20;99.90;;;;;;4989822;28;20214;-72
2024/01/22 06:15:29;;;;;;;1.53;1.43;;;6.20;99.90;;;;;;5005262;28;20666;-73
2024/01/22 06:17:55;;;;;;;1.00;1.00;;;6.40;99.90;;;;;;5009143;28;20578;-73
2024/01/22 06:20:22;;;;;;;1.40;1.10;;;6.30;99.90;;;;;;5008919;28;20241;-73
2024/01/22 06:22:49;;;;;;;1.17;1.10;;;6.50;99.90;;;;;;5008488;28;20209;-73
2024/01/22 06:25:17;;;;;;;2.93;1.40;;;6.30;99.90;;;;;;5008793;28;20244;-73
2024/01/22 06:27:45;;;;;;;1.27;0.97;;;6.40;99.90;;;;;;5008882;28;20324;-72
2024/01/22 06:30:15;;;;;;;2.87;1.60;;;6.50;99.90;;;;;;5008967;28;20719;-72
2024/01/22 06:32:42;;;;;;;1.20;1.10;;;6.70;99.90;;;;;;5009185;28;20289;-72
2024/01/22 06:35:09;;;;;;;1.07;0.97;;;6.70;99.90;;;;;;5008104;28;20631;-72
2024/01/22 06:37:36;;;;;;;2.40;1.30;;;6.70;99.90;;;;;;5008623;28;20288;-72
2024/01/22 06:40:03;;;;;;;1.00;1.00;;;6.90;99.90;;;;;;5008807;28;20241;-72
2024/01/22 06:42:32;;;;;;;1.83;1.30;;;6.90;99.90;;;;;;5008431;28;20250;-72
2024/01/22 06:44:59;;;;;;;1.07;1.07;;;6.90;99.90;;;;;;5008608;28;20312;-72
2024/01/22 06:47:25;;;;;;;2.23;1.60;;;7.00;99.90;;;;;;5008269;28;20288;-72
2024/01/22 06:49:52;;;;;;;1.70;1.10;;;6.80;99.90;;;;;;5008372;28;20249;-72
2024/01/22 06:52:19;;;;;;;1.50;1.27;;;6.80;99.90;;;;;;5008266;28;20329;-72
2024/01/22 06:54:46;;;;;;;1.10;1.03;;;7.00;99.90;;;;;;5007974;28;20296;-72
2024/01/22 06:57:13;;;;;;;1.50;1.10;;;6.90;99.90;;;;;;5008362;28;20692;-72
2024/01/22 06:59:41;;;;;;;2.87;1.27;;;6.90;99.90;;;;;;5007964;28;20236;-72
2024/01/22 07:02:08;;;;;;;1.10;1.03;;;6.80;99.90;;;;;;5008439;28;20306;-72
2024/01/22 07:04:36;;;;;;;1.30;1.20;;;6.80;99.90;;;;;;5008195;28;20300;-72
2024/01/22 07:07:03;;;;;;;1.37;1.00;;;6.70;99.90;;;;;;5008126;28;20213;-72
2024/01/22 07:09:30;;;;;;;1.17;1.07;;;6.70;99.90;;;;;;5008332;28;20217;-73
2024/01/22 07:11:58;;;;;;;1.53;1.10;;;6.70;99.90;;;;;;4990586;28;20305;-72
2024/01/22 07:14:26;;;;;;;1.47;1.40;;;6.60;99.90;;;;;;4988711;28;20206;-72
2024/01/22 07:16:54;;;;;;;1.30;1.20;;;6.60;99.90;;;;;;4988806;28;20210;-72
2024/01/22 07:19:21;;;;;;;1.00;1.00;;;6.50;99.90;;;;;;4988605;28;20316;-72
2024/01/22 07:21:48;;;;;;;2.40;1.03;;;6.50;99.90;;;;;;4988168;28;20297;-72
2024/01/22 07:24:15;;;;;;;1.10;1.10;;;6.40;99.90;;;;;;4988604;28;20698;-72
2024/01/22 07:26:42;;;;;;;1.37;1.10;;;6.60;99.90;;;;;;4988610;28;20312;-72
2024/01/22 07:29:10;;;;;;;1.23;1.10;;;6.60;99.90;;;;;;4988434;28;20212;-72
2024/01/22 07:31:40;;;;;;;1.20;1.10;;;6.60;99.90;;;;;;4988064;28;20210;-72
2024/01/22 07:34:08;;;;;;;1.17;1.07;;;6.60;99.90;;;;;;4988252;28;20220;-72
2024/01/22 07:36:35;;;;;;;3.83;1.20;;;6.70;99.90;;;;;;4992347;28;20304;-72
2024/01/22 07:39:02;;;;;;;0.87;0.87;;;6.70;99.90;;;;;;5007563;28;20296;-72
2024/01/22 07:41:29;;;;;;;1.50;1.30;;;6.70;99.90;;;;;;5007515;28;20304;-72
2024/01/22 07:43:57;;;;;;;1.27;1.23;;;6.70;99.90;;;;;;5002374;28;20668;-72
2024/01/22 07:46:23;;;;;;;1.17;1.10;;;6.80;99.90;;;;;;5006797;28;20312;-72
2024/01/22 07:48:52;;;;;;;0.80;0.77;;;6.90;99.90;;;;;;5008086;28;20220;-72
2024/01/22 07:51:20;;;;;;;1.43;1.33;;;6.80;99.90;;;;;;5007477;28;20241;-71
2024/01/22 07:53:47;;;;;;;1.17;0.87;;;7.00;99.90;;;;;;5007078;28;20237;-72
2024/01/22 07:56:14;;;;;;;1.37;1.27;;;6.90;99.90;;;;;;5007051;28;20289;-71
2024/01/22 07:58:41;;;;;;;2.43;1.30;;;6.80;99.90;;;;;;5007297;28;20241;-72
2024/01/22 08:01:09;;;;;;;3.30;1.33;;;6.70;99.90;;;;;;5007115;28;20237;-72
2024/01/22 08:03:36;;;;;;;1.10;1.10;;;6.70;99.90;;;;;;5007368;28;20301;-71
2024/01/22 08:06:03;;;;;;;2.03;1.40;;;6.60;99.90;;;;;;5007525;28;20236;-72
2024/01/22 08:08:31;;;;;;;3.10;1.43;;;6.50;99.90;;;;;;5006829;28;20691;-72
2024/01/22 08:10:59;;;;;;;3.43;1.60;;;6.40;99.90;;;;;;5007162;28;20213;-72
2024/01/22 08:13:25;;;;;;;1.60;1.50;;;6.20;99.90;;;;;;5007075;28;20217;-72
2024/01/22 08:15:52;;;;;;;1.57;1.30;;;6.10;99.90;;;;;;5007142;28;20751;-72
2024/01/22 08:18:20;;;;;;;1.50;1.40;;;6.00;99.90;;;;;;5007311;28;20316;-72
2024/01/22 08:20:46;;;;;;;1.90;1.23;;;5.90;99.90;;;;;;5007079;28;20229;-72
2024/01/22 08:23:13;;;;;;;1.53;1.43;;;5.80;99.90;;;;;;5007165;28;20297;-72
2024/01/22 08:25:41;;;;;;;2.33;1.77;;;5.70;99.90;;;;;;5007134;28;20240;-73
2024/01/22 08:28:08;;;;;;;2.40;2.00;;;5.70;99.90;;;;;;5006764;28;20727;-72
2024/01/22 08:30:35;;;;;;;1.30;1.30;;;5.60;99.90;;;;;;5006907;28;20216;-72
2024/01/22 08:33:02;;;;;;;1.97;1.27;;;5.60;99.90;;;;;;5007107;28;20276;-72
2024/01/22 08:35:29;;;;;;;2.90;1.50;;;5.50;99.90;;;;;;5006696;28;20300;-72
2024/01/22 08:37:56;;;;;;;1.47;1.37;;;5.50;99.90;;;;;;5006824;28;20730;-72
2024/01/22 08:40:24;;;;;;;1.73;1.63;;;5.50;99.90;;;;;;5006825;28;20328;-72
2024/01/22 08:42:53;;;;;;;1.40;1.30;;;5.50;99.90;;;;;;5007321;28;20240;-72
2024/01/22 08:45:21;;;;;;;1.60;1.50;;;5.50;99.90;;;;;;5006393;28;20778;-72
2024/01/22 08:47:49;;;;;;;2.10;1.60;;;5.60;99.90;;;;;;5006961;28;20221;-72
2024/01/22 08:50:17;;;;;;;1.33;1.23;;;5.50;99.90;;;;;;5006646;28;20313;-72
2024/01/22 08:52:45;;;;;;;2.80;1.73;;;5.50;99.90;;;;;;5006197;28;20327;-72
2024/01/22 08:55:12;;;;;;;1.53;1.20;;;5.50;99.90;;;;;;5006761;28;20292;-72
2024/01/22 08:57:40;;;;;;;2.33;1.70;;;5.50;99.90;;;;;;5007964;28;20296;-72
2024/01/22 09:00:11;;;;;;;1.77;1.50;;;5.50;99.90;;;;;;5010511;28;20264;-72
2024/01/22 09:02:39;;;;;;;1.40;1.30;;;5.60;99.90;;;;;;5010438;28;20364;-72
2024/01/22 09:05:07;;;;;;;1.63;1.53;;;5.60;99.90;;;;;;5010756;28;20209;-72
2024/01/22 09:07:35;;;;;;;1.33;1.30;;;5.60;99.90;;;;;;4997290;28;20224;-72
2024/01/22 09:10:05;;;;;;;2.07;1.20;;;5.60;99.90;;;;;;4991103;28;20212;-73
2024/01/22 09:12:32;;;;;;;1.30;1.20;;;5.50;99.90;;;;;;4990623;28;20202;-72
2024/01/22 09:14:59;;;;;;;1.40;1.33;;;5.60;99.90;;;;;;4990571;28;20261;-72
2024/01/22 09:17:27;;;;;;;2.07;1.87;;;5.60;99.90;;;;;;4990493;28;20202;-72
2024/01/22 09:19:54;;;;;;;3.40;1.40;;;5.60;99.90;;;;;;4990264;28;20281;-72
2024/01/22 09:22:21;;;;;;;3.27;1.53;;;5.60;99.90;;;;;;4990451;28;20293;-72
2024/01/22 09:24:48;;;;;;;1.47;1.37;;;5.70;99.90;;;;;;4990595;28;20237;-72
2024/01/22 09:27:15;;;;;;;1.57;1.47;;;5.80;99.90;;;;;;4990782;28;20301;-72
2024/01/22 09:29:42;;;;;;;2.03;1.60;;;5.90;99.90;;;;;;4990202;28;20245;-72
2024/01/22 09:32:09;;;;;;;1.60;1.50;;;6.00;99.90;;;;;;4990332;28;20217;-72
2024/01/22 09:34:38;;;;;;;4.70;1.40;;;6.00;99.90;;;;;;4990088;28;20301;-72
2024/01/22 09:37:05;;;;;;;1.93;1.43;;;6.10;99.90;;;;;;4995141;28;20321;-72
2024/01/22 09:39:33;;;;;;;1.30;1.20;;;6.00;99.90;;;;;;4990233;28;20245;-72
2024/01/22 09:42:00;;;;;;;1.50;1.40;;;6.10;99.90;;;;;;4990285;28;20236;-72
2024/01/22 09:44:27;;;;;;;1.67;1.40;;;6.10;99.90;;;;;;4989844;28;20683;-72
2024/01/22 09:46:54;;;;;;;1.60;1.17;;;6.20;99.90;;;;;;4990210;28;20736;-71
2024/01/22 09:49:21;;;;;;;1.30;1.20;;;6.20;99.90;;;;;;5003681;28;20694;-72
2024/01/22 09:51:51;;;;;;;0.93;0.93;;;6.30;99.90;;;;;;5009257;28;20249;-72
2024/01/22 09:54:20;;;;;;;2.07;1.03;;;6.50;99.90;;;;;;5009555;28;20206;-72
2024/01/22 09:56:51;;;;;;;1.00;1.00;;;6.70;99.90;;;;;;5009289;28;20213;-72
2024/01/22 09:59:20;;;;;;;1.27;1.27;;;6.80;99.90;;;;;;5009597;28;20205;-72
2024/01/22 10:01:48;;;;;;;1.03;1.03;;;6.90;99.90;;;;;;5009124;28;20233;-72
2024/01/22 10:04:16;;;;;;;1.67;1.33;;;6.90;99.90;;;;;;5009466;28;20292;-72
2024/01/22 10:06:44;;;;;;;0.90;0.90;;;6.90;99.90;;;;;;5009056;28;20296;-72
2024/01/22 10:09:15;;;;;;;2.10;1.00;;;6.90;99.90;;;;;;5008411;28;20676;-72
2024/01/22 10:11:42;;;;;;;1.30;1.20;;;7.20;99.90;;;;;;5009469;28;20221;-72
2024/01/22 10:14:09;;;;;;;0.90;0.90;;;7.20;99.90;;;;;;5009357;28;20304;-72
2024/01/22 10:16:37;;;;;;;2.30;1.30;;;7.10;99.90;;;;;;5008651;28;20296;-73
2024/01/22 10:19:07;;;;;;;1.23;1.10;;;7.20;99.90;;;;;;5009329;28;20292;-72
2024/01/22 10:21:34;;;;;;;0.87;0.87;;;7.30;99.90;;;;;;5008666;28;20632;-72
2024/01/22 10:24:03;;;;;;;1.43;0.80;;;7.40;99.90;;;;;;5009355;28;20320;-72
2024/01/22 10:26:32;;;;;;;0.73;0.73;;;7.50;99.90;;;;;;5009298;28;20289;-72
2024/01/22 10:29:15;;;;;;;2.33;1.00;;;7.60;99.90;;;;;;5008930;28;20758;-72
2024/01/22 10:31:56;;;;;;;0.83;0.83;;;7.70;99.90;;;;;;5009470;28;20210;-72
2024/01/22 10:34:24;;;;;;;1.00;0.90;;;7.60;99.90;;;;;;5005749;28;21045;-72
2024/01/22 10:37:06;;;;;;;0.90;0.80;;;7.70;99.90;;;;;;5008677;28;20300;-72
2024/01/22 10:39:33;;;;;;;1.10;0.90;;;7.70;99.90;;;;;;5008743;28;20198;-72
2024/01/22 10:42:09;;;;;;;1.07;0.90;;;7.60;99.90;;;;;;5008540;28;20339;-72
2024/01/22 10:44:37;;;;;;;0.73;0.73;;;7.80;99.90;;;;;;5008882;28;20203;-72
2024/01/22 10:47:04;;;;;;;1.17;0.93;;;7.90;99.90;;;;;;5008766;28;20230;-72
2024/01/22 10:49:32;;;;;;;0.80;0.77;;;7.80;99.90;;;;;;5008523;28;20836;-72
2024/01/22 10:52:00;;;;;;;0.73;0.73;;;8.00;99.90;;;;;;5008076;28;20340;-71
2024/01/22 10:54:27;;;;;;;1.03;0.70;;;8.20;99.90;;;;;;5008438;28;21092;-72
2024/01/22 10:57:03;;;;;;;0.80;0.70;;;8.20;99.90;;;;;;5008514;28;20645;-72
2024/01/22 10:59:35;;;;;;;1.53;0.80;;;8.20;99.90;;;;;;5008307;28;20190;-72
2024/01/22 11:02:04;;;;;;;1.00;0.73;;;8.20;99.90;;;;;;5008507;28;20696;-72
2024/01/22 11:04:34;;;;;;;1.60;0.80;;;8.50;99.90;;;;;;5008291;28;20252;-72
2024/01/22 11:07:02;;;;;;;1.40;0.90;;;8.50;99.90;;;;;;5008119;28;20762;-72
2024/01/22 11:09:33;;;;;;;1.50;0.83;;;8.60;99.90;;;;;;5008179;28;20747;-72
2024/01/22 11:12:05;;;;;;;0.57;0.57;;;8.60;99.90;;;;;;5008633;28;20788;-72
2024/01/22 11:14:35;;;;;;;0.60;0.60;;;8.60;99.90;;;;;;5008368;28;20193;-72
2024/01/22 11:17:02;;;;;;;1.07;0.90;;;8.50;99.90;;;;;;5008324;28;20298;-72
2024/01/22 11:19:30;;;;;;;0.80;0.57;;;8.50;99.90;;;;;;5007765;28;20513;-72
2024/01/22 11:21:57;;;;;;;1.53;0.70;;;8.60;99.90;;;;;;5007771;28;20328;-72
2024/01/22 11:24:23;;;;;;;0.73;0.73;;;8.60;99.90;;;;;;5008141;28;20229;-72
2024/01/22 11:27:07;;;;;;;0.63;0.63;;;8.60;99.90;;;;;;5007671;28;20220;-72
2024/01/22 11:29:35;;;;;;;0.93;0.80;;;8.50;99.90;;;;;;5007567;28;20331;-72
2024/01/22 11:32:25;;;;;;;0.60;0.60;;;8.60;99.90;;;;;;5008102;28;20473;-72
2024/01/22 11:34:53;;;;;;;1.07;0.73;;;8.70;99.90;;;;;;5007639;28;20245;-72
2024/01/22 11:37:36;;;;;;;0.63;0.63;;;8.60;99.90;;;;;;5007559;28;20619;-72
2024/01/22 11:40:06;;;;;;;0.73;0.50;;;8.70;99.90;;;;;;5007709;28;20251;-72
2024/01/22 11:42:33;;;;;;;0.80;0.80;;;8.70;99.90;;;;;;4989178;28;20804;-72
2024/01/22 11:45:14;;;;;;;0.40;0.40;;;8.70;99.90;;;;;;4988027;28;20262;-72
2024/01/22 11:47:42;;;;;;;0.77;0.70;;;8.70;99.90;;;;;;4988131;28;20669;-71
2024/01/22 11:50:10;;;;;;;0.93;0.80;;;8.70;99.90;;;;;;4987740;28;20210;-71
2024/01/22 11:52:38;;;;;;;0.93;0.90;;;8.80;99.90;;;;;;5000161;28;20514;-71
2024/01/22 11:55:06;;;;;;;0.60;0.60;;;8.80;99.90;;;;;;5007463;28;20546;-72
2024/01/22 11:57:36;;;;;;;0.87;0.87;;;8.80;99.90;;;;;;5007195;28;20707;-72
2024/01/22 12:00:06;;;;;;;0.60;0.60;;;8.80;99.90;;;;;;5007561;28;20429;-72
2024/01/22 12:02:34;;;;;;;0.60;0.60;;;8.80;99.90;;;;;;5007164;28;20698;-71
2024/01/22 12:05:03;;;;;;;0.50;0.50;;;9.00;99.90;;;;;;5007154;28;20204;-71
2024/01/22 12:07:34;;;;;;;0.90;0.50;;;9.10;99.90;;;;;;5007216;28;20209;-72
2024/01/22 12:10:02;;;;;;;2.47;0.83;;;9.10;99.90;;;;;;5007427;28;20216;-72
2024/01/22 12:12:29;;;;;;;0.90;0.63;;;9.10;99.90;;;;;;5006976;28;20683;-72
2024/01/22 12:14:57;;;;;;;0.60;0.60;;;9.20;99.90;;;;;;5007359;28;20260;-72
2024/01/22 12:17:25;;;;;;;1.23;0.50;;;9.30;99.90;;;;;;5007446;28;20240;-71
2024/01/22 12:19:58;;;;;;;0.67;0.63;;;9.30;99.90;;;;;;5007038;28;20208;-71
2024/01/22 12:22:25;;;;;;;0.93;0.50;;;9.30;99.90;;;;;;5006810;28;20316;-72
2024/01/22 12:25:06;;;;;;;0.97;0.70;;;9.30;99.90;;;;;;5006678;28;21062;-72
2024/01/22 12:27:34;;;;;;;0.60;0.60;;;9.40;99.90;;;;;;4987575;28;20290;-72
2024/01/22 12:30:03;;;;;;;0.70;0.70;;;9.40;99.90;;;;;;4987331;28;20668;-71
2024/01/22 12:32:30;;;;;;;0.60;0.60;;;9.30;99.90;;;;;;4989574;28;20213;-71
2024/01/22 12:34:59;;;;;;;0.70;0.70;;;9.20;99.90;;;;;;4993707;28;20292;-71
2024/01/22 12:37:29;;;;;;;1.00;0.40;;;9.10;99.90;;;;;;5004806;28;20240;-71
2024/01/22 12:40:14;;;;;;;0.53;0.53;;;9.20;99.90;;;;;;5013903;28;20300;-71
2024/01/22 12:42:45;;;;;;;0.80;0.60;;;9.30;99.90;;;;;;5013251;28;20275;-71
2024/01/22 12:45:14;;;;;;;1.10;0.90;;;9.30;99.90;;;;;;5013326;28;20268;-71
2024/01/22 12:47:41;;;;;;;0.57;0.50;;;9.30;99.90;;;;;;5013077;28;20672;-71
2024/01/22 12:50:11;;;;;;;1.50;0.63;;;9.30;99.90;;;;;;5013309;28;20244;-71
2024/01/22 12:52:38;;;;;;;1.10;0.83;;;9.40;99.90;;;;;;5012643;28;20320;-72
2024/01/22 12:55:06;;;;;;;0.73;0.60;;;9.40;99.90;;;;;;5013273;28;20209;-71
2024/01/22 12:57:34;;;;;;;0.40;0.40;;;9.30;99.90;;;;;;5013437;28;20292;-71
2024/01/22 13:00:03;;;;;;;0.57;0.40;;;9.30;99.90;;;;;;5013165;28;20659;-71
2024/01/22 13:02:30;;;;;;;0.40;0.40;;;9.30;99.90;;;;;;5012827;28;20229;-71